createdAt,value
2018-07-23T00:00:37.666Z,80.10
2018-07-23T00:03:07.489Z,80.40
2018-07-23T00:05:37.327Z,80.10
2018-07-23T00:08:07.112Z,80.60
2018-07-23T00:10:36.928Z,80.50
2018-07-23T00:13:06.735Z,81.10
2018-07-23T00:15:36.513Z,81.70
2018-07-23T00:18:06.356Z,82.00
2018-07-23T00:20:36.136Z,83.00
2018-07-23T00:23:05.962Z,83.30
2018-07-23T00:25:35.779Z,83.00
2018-07-23T00:28:05.591Z,82.90
2018-07-23T00:30:35.396Z,82.00
2018-07-23T00:33:05.201Z,82.00
2018-07-23T00:35:34.985Z,81.50
2018-07-23T00:38:04.834Z,81.80
2018-07-23T00:40:34.699Z,81.20
2018-07-23T00:43:04.467Z,80.30
2018-07-23T00:45:34.315Z,79.90
2018-07-23T00:48:04.136Z,79.50
2018-07-23T00:50:33.919Z,79.40
2018-07-23T00:53:03.744Z,80.40
2018-07-23T00:55:33.535Z,81.70
2018-07-23T00:58:03.333Z,83.10
2018-07-23T01:00:33.145Z,85.00
2018-07-23T01:03:06.626Z,83.80
2018-07-23T01:05:38.257Z,85.00
2018-07-23T01:08:08.453Z,85.40
2018-07-23T01:10:38.297Z,85.90
2018-07-23T01:13:08.078Z,86.30
2018-07-23T01:15:37.899Z,85.60
2018-07-23T01:18:07.699Z,85.80
2018-07-23T01:20:37.510Z,86.10
2018-07-23T01:23:07.304Z,86.10
2018-07-23T01:25:37.101Z,85.80
2018-07-23T01:28:06.889Z,86.40
2018-07-23T01:30:36.718Z,85.60
2018-07-23T01:33:06.576Z,86.50
2018-07-23T01:35:36.376Z,86.50
2018-07-23T01:40:35.514Z,87.10
2018-07-23T01:43:05.313Z,86.60
2018-07-23T01:45:35.146Z,86.50
2018-07-23T01:48:05.014Z,86.80
2018-07-23T01:50:34.836Z,87.00
2018-07-23T01:55:34.197Z,87.50
2018-07-23T01:58:03.988Z,87.90
2018-07-23T02:00:33.778Z,87.60
2018-07-23T02:03:03.675Z,87.50
2018-07-23T02:05:33.485Z,88.00
2018-07-23T02:08:03.362Z,88.30
2018-07-23T02:10:33.231Z,88.30
2018-07-23T02:13:03.138Z,87.90
2018-07-23T02:15:32.952Z,87.80
2018-07-23T02:18:02.858Z,87.80
2018-07-23T02:20:32.716Z,87.60
2018-07-23T02:23:02.629Z,87.70
2018-07-23T02:25:32.473Z,88.20
2018-07-23T02:28:02.289Z,88.30
2018-07-23T02:30:32.043Z,88.50
2018-07-23T02:33:01.845Z,88.70
2018-07-23T02:35:31.637Z,89.10
2018-07-23T02:38:01.421Z,89.00
2018-07-23T02:40:31.275Z,88.80
2018-07-23T02:43:01.294Z,89.10
2018-07-23T02:45:31.094Z,89.10
2018-07-23T02:48:01.063Z,88.90
2018-07-23T02:50:30.884Z,88.70
2018-07-23T02:53:00.657Z,88.00
2018-07-23T02:55:30.461Z,87.70
2018-07-23T02:58:00.253Z,87.30
2018-07-23T03:00:30.040Z,86.70
2018-07-23T03:02:59.844Z,87.50
2018-07-23T03:05:29.618Z,86.20
2018-07-23T03:07:59.419Z,85.50
2018-07-23T03:10:29.207Z,85.90
2018-07-23T03:15:28.333Z,86.40
2018-07-23T03:17:58.147Z,86.90
2018-07-23T03:20:27.947Z,87.50
2018-07-23T03:22:57.728Z,88.00
2018-07-23T03:25:27.608Z,88.40
2018-07-23T03:27:57.428Z,89.20
2018-07-23T03:30:27.238Z,89.70
2018-07-23T03:32:57.118Z,90.00
2018-07-23T03:35:26.950Z,90.20
2018-07-23T03:37:56.716Z,90.50
2018-07-23T03:40:26.522Z,90.60
2018-07-23T03:42:56.326Z,90.90
2018-07-23T03:45:26.158Z,90.90
2018-07-23T03:47:55.956Z,90.60
2018-07-23T03:50:25.737Z,90.50
2018-07-23T03:52:55.512Z,90.70
2018-07-23T03:55:25.322Z,90.50
2018-07-23T03:57:55.179Z,90.40
2018-07-23T04:00:24.996Z,90.40
2018-07-23T04:02:54.838Z,90.60
2018-07-23T04:05:24.652Z,90.60
2018-07-23T04:07:54.465Z,90.60
2018-07-23T04:10:24.319Z,90.50
2018-07-23T04:12:54.155Z,90.30
2018-07-23T04:15:24.057Z,90.50
2018-07-23T04:18:01.513Z,90.10
2018-07-23T04:20:32.975Z,90.00
2018-07-23T04:23:03.477Z,90.30
2018-07-23T04:25:33.397Z,90.20
2018-07-23T04:28:06.090Z,90.20
2018-07-23T04:30:35.918Z,89.70
2018-07-23T04:33:06.074Z,89.30
2018-07-23T04:35:35.949Z,89.10
2018-07-23T04:38:05.730Z,89.40
2018-07-23T04:40:35.530Z,89.20
2018-07-23T04:43:05.419Z,89.50
2018-07-23T04:45:35.160Z,88.70
2018-07-23T04:48:05.043Z,86.80
2018-07-23T04:50:34.838Z,86.60
2018-07-23T04:53:04.672Z,86.60
2018-07-23T04:55:34.505Z,85.90
2018-07-23T04:58:04.341Z,85.00
2018-07-23T05:00:34.221Z,85.60
2018-07-23T05:03:04.066Z,85.60
2018-07-23T05:05:33.940Z,86.10
2018-07-23T05:08:03.768Z,85.30
2018-07-23T05:10:33.710Z,85.20
2018-07-23T05:13:03.548Z,85.60
2018-07-23T05:15:33.429Z,84.80
2018-07-23T05:18:03.332Z,85.00
2018-07-23T05:20:33.159Z,84.60
2018-07-23T05:23:03.188Z,84.60
2018-07-23T05:25:33.059Z,84.30
2018-07-23T05:28:02.924Z,84.00
2018-07-23T05:30:32.740Z,83.80
2018-07-23T05:33:02.658Z,83.70
2018-07-23T05:35:32.562Z,84.60
2018-07-23T05:38:02.352Z,84.50
2018-07-23T05:40:32.217Z,83.70
2018-07-23T05:43:01.988Z,83.50
2018-07-23T05:45:31.811Z,83.10
2018-07-23T05:48:01.652Z,81.90
2018-07-23T05:50:31.520Z,81.30
2018-07-23T05:53:01.372Z,79.50
2018-07-23T05:55:31.270Z,78.60
2018-07-23T05:58:01.170Z,77.90
2018-07-23T06:00:30.987Z,77.70
2018-07-23T06:03:00.829Z,77.60
2018-07-23T06:05:30.635Z,75.10
2018-07-23T06:08:00.436Z,73.60
2018-07-23T06:10:30.281Z,73.70
2018-07-23T06:13:00.100Z,74.40
2018-07-23T06:15:29.924Z,74.60
2018-07-23T06:17:59.753Z,74.60
2018-07-23T06:20:29.537Z,74.30
2018-07-23T06:22:59.384Z,73.80
2018-07-23T06:25:30.040Z,73.90
2018-07-23T06:27:59.916Z,72.90
2018-07-23T06:30:29.705Z,72.90
2018-07-23T06:32:59.507Z,72.40
2018-07-23T06:35:29.430Z,71.90
2018-07-23T06:37:59.315Z,72.00
2018-07-23T06:40:29.134Z,72.00
2018-07-23T06:42:58.931Z,72.30
2018-07-23T06:45:28.817Z,71.40
2018-07-23T06:47:58.634Z,70.90
2018-07-23T06:50:28.469Z,70.80
2018-07-23T06:52:58.319Z,70.50
2018-07-23T06:55:28.147Z,69.50
2018-07-23T06:57:57.985Z,69.30
2018-07-23T07:00:27.771Z,69.00
2018-07-23T07:02:57.535Z,68.60
2018-07-23T07:05:27.323Z,68.70
2018-07-23T07:07:57.104Z,68.80
2018-07-23T07:10:26.930Z,67.90
2018-07-23T07:12:56.701Z,67.70
2018-07-23T07:15:26.521Z,66.90
2018-07-23T07:17:56.345Z,66.20
2018-07-23T07:20:26.237Z,65.20
2018-07-23T07:25:25.428Z,64.60
2018-07-23T07:27:55.212Z,63.50
2018-07-23T07:30:25.102Z,63.50
2018-07-23T07:32:54.920Z,63.50
2018-07-23T07:35:24.812Z,63.40
2018-07-23T07:37:54.717Z,64.30
2018-07-23T07:40:24.560Z,64.40
2018-07-23T07:42:54.396Z,64.40
2018-07-23T07:45:24.250Z,63.90
2018-07-23T07:50:23.355Z,64.90
2018-07-23T07:52:53.140Z,64.60
2018-07-23T07:55:23.058Z,64.00
2018-07-23T07:57:52.833Z,63.90
2018-07-23T08:00:22.646Z,64.20
2018-07-23T08:02:52.527Z,63.00
2018-07-23T08:05:22.781Z,62.80
2018-07-23T08:07:52.614Z,63.10
2018-07-23T08:10:22.420Z,61.70
2018-07-23T08:12:52.413Z,61.50
2018-07-23T08:15:22.207Z,60.50
2018-07-23T08:17:52.153Z,59.70
2018-07-23T08:20:21.971Z,58.80
2018-07-23T08:22:51.749Z,58.20
2018-07-23T08:25:21.563Z,57.60
2018-07-23T08:27:51.483Z,57.70
2018-07-23T08:30:21.251Z,58.40
2018-07-23T08:32:51.007Z,57.40
2018-07-23T08:35:20.920Z,57.00
2018-07-23T08:40:26.771Z,56.50
2018-07-23T08:42:56.577Z,55.50
2018-07-23T08:45:26.385Z,55.00
2018-07-23T08:50:25.627Z,54.50
2018-07-23T08:52:55.538Z,54.80
2018-07-23T08:55:25.399Z,54.50
2018-07-23T08:57:55.209Z,54.20
2018-07-23T09:00:24.988Z,53.70
2018-07-23T09:02:54.884Z,53.10
2018-07-23T09:05:24.633Z,53.90
2018-07-23T09:07:54.770Z,53.20
2018-07-23T09:10:24.561Z,52.70
2018-07-23T09:12:54.383Z,52.20
2018-07-23T09:15:24.709Z,51.90
2018-07-23T09:17:54.695Z,51.90
2018-07-23T09:20:24.457Z,51.70
2018-07-23T09:22:54.238Z,51.60
2018-07-23T09:25:28.377Z,52.50
2018-07-23T09:27:58.136Z,51.60
2018-07-23T09:30:33.211Z,49.70
2018-07-23T09:33:02.983Z,47.20
2018-07-23T09:35:32.837Z,46.40
2018-07-23T09:38:02.681Z,47.00
2018-07-23T09:40:32.531Z,47.50
2018-07-23T09:43:02.729Z,46.60
2018-07-23T09:45:32.532Z,46.60
2018-07-23T09:48:02.386Z,46.10
2018-07-23T09:50:32.179Z,45.70
2018-07-23T09:53:01.958Z,44.70
2018-07-23T09:55:32.315Z,44.10
2018-07-23T09:58:02.195Z,42.30
2018-07-23T10:00:37.340Z,42.00
2018-07-23T10:03:07.233Z,42.10
2018-07-23T10:05:36.917Z,41.70
2018-07-23T10:08:06.758Z,41.50
2018-07-23T10:10:36.572Z,41.50
2018-07-23T10:13:06.328Z,40.30
2018-07-23T10:15:36.096Z,39.50
2018-07-23T10:18:06.013Z,39.40
2018-07-23T10:20:36.055Z,38.60
2018-07-23T10:23:05.951Z,36.80
2018-07-23T10:25:35.749Z,37.90
2018-07-23T10:28:05.642Z,38.00
2018-07-23T10:30:35.389Z,38.30
2018-07-23T10:33:05.193Z,36.70
2018-07-23T10:35:35.002Z,35.60
2018-07-23T10:38:04.866Z,35.40
2018-07-23T10:40:34.633Z,35.40
2018-07-23T10:43:04.501Z,34.70
2018-07-23T10:45:34.690Z,34.30
2018-07-23T10:48:04.549Z,35.50
2018-07-23T10:50:34.350Z,35.40
2018-07-23T10:53:04.216Z,36.60
2018-07-23T10:55:34.132Z,37.00
2018-07-23T10:58:04.078Z,37.30
2018-07-23T11:00:34.029Z,36.50
2018-07-23T11:03:03.935Z,36.30
2018-07-23T11:05:33.856Z,35.60
2018-07-23T11:08:03.692Z,35.50
2018-07-23T11:10:33.485Z,34.50
2018-07-23T11:13:03.344Z,34.10
2018-07-23T11:15:33.173Z,33.70
2018-07-23T11:18:02.991Z,33.60
2018-07-23T11:23:02.274Z,31.90
2018-07-23T11:25:40.134Z,31.00
2018-07-23T11:28:01.910Z,30.30
2018-07-23T11:30:31.844Z,28.90
2018-07-23T11:33:01.902Z,27.30
2018-07-23T11:35:31.744Z,25.70
2018-07-23T11:38:01.559Z,25.30
2018-07-23T11:40:32.394Z,25.80
2018-07-23T11:43:02.204Z,24.60
2018-07-23T11:45:31.992Z,23.80
2018-07-23T11:48:01.812Z,22.70
2018-07-23T11:50:31.751Z,21.40
2018-07-23T11:53:02.762Z,20.60
2018-07-23T11:55:32.530Z,20.20
2018-07-23T11:58:02.334Z,20.40
2018-07-23T12:00:32.259Z,20.90
2018-07-23T12:03:02.115Z,21.70
2018-07-23T12:05:32.265Z,23.10
2018-07-23T12:08:02.052Z,24.50
2018-07-23T12:10:39.247Z,27.30
2018-07-23T12:13:09.435Z,28.70
2018-07-23T12:15:39.306Z,29.60
2018-07-23T12:18:09.150Z,28.50
2018-07-23T12:20:38.984Z,26.60
2018-07-23T12:23:08.811Z,25.00
2018-07-23T12:25:38.766Z,24.80
2018-07-23T12:28:08.597Z,26.50
2018-07-23T12:30:38.439Z,28.60
2018-07-23T12:33:08.208Z,29.70
2018-07-23T12:35:38.002Z,30.80
2018-07-23T12:38:07.840Z,31.90
2018-07-23T12:40:37.612Z,32.10
2018-07-23T12:43:07.452Z,31.20
2018-07-23T12:45:37.388Z,28.20
2018-07-23T12:48:07.221Z,24.80
2018-07-23T12:50:37.043Z,22.80
2018-07-23T12:53:06.816Z,22.80
2018-07-23T12:55:36.606Z,24.30
2018-07-23T12:58:06.562Z,24.20
2018-07-23T13:00:36.453Z,23.00
2018-07-23T13:03:06.259Z,24.20
2018-07-23T13:05:35.991Z,25.80
2018-07-23T13:08:05.837Z,24.30
2018-07-23T13:10:35.556Z,22.30
2018-07-23T13:13:05.524Z,22.00
2018-07-23T13:15:35.311Z,23.50
2018-07-23T13:18:05.233Z,24.80
2018-07-23T13:20:35.095Z,26.70
2018-07-23T13:23:05.024Z,26.80
2018-07-23T13:25:34.920Z,24.00
2018-07-23T13:28:04.919Z,22.30
2018-07-23T13:30:34.715Z,22.70
2018-07-23T13:33:04.539Z,24.10
2018-07-23T13:35:34.310Z,24.90
2018-07-23T13:38:04.121Z,26.90
2018-07-23T13:40:33.856Z,28.90
2018-07-23T13:43:03.655Z,32.10
2018-07-23T13:45:33.445Z,31.80
2018-07-23T13:48:03.499Z,32.40
2018-07-23T13:50:33.268Z,33.90
2018-07-23T13:53:04.638Z,33.50
2018-07-23T13:55:34.505Z,33.70
2018-07-23T13:58:04.292Z,34.60
2018-07-23T14:00:34.076Z,34.80
2018-07-23T14:03:04.175Z,35.40
2018-07-23T14:05:34.849Z,36.20
2018-07-23T14:08:04.847Z,35.70
2018-07-23T14:10:34.648Z,35.30
2018-07-23T14:13:04.474Z,35.10
2018-07-23T14:15:34.320Z,34.90
2018-07-23T14:18:04.223Z,34.60
2018-07-23T14:20:34.001Z,34.50
2018-07-23T14:23:03.876Z,34.20
2018-07-23T14:25:33.920Z,33.70
2018-07-23T14:28:03.721Z,33.60
2018-07-23T14:30:33.564Z,32.80
2018-07-23T14:33:03.349Z,32.00
2018-07-23T14:35:33.404Z,31.80
2018-07-23T14:38:03.301Z,32.00
2018-07-23T14:40:33.119Z,32.20
2018-07-23T14:43:03.055Z,33.00
2018-07-23T14:45:32.928Z,31.00
2018-07-23T14:48:02.752Z,27.50
2018-07-23T14:50:32.728Z,24.80
2018-07-23T14:53:02.499Z,24.40
2018-07-23T14:55:32.338Z,26.20
2018-07-23T14:58:02.118Z,27.20
2018-07-23T15:00:31.907Z,27.30
2018-07-23T15:03:01.788Z,28.20
2018-07-23T15:05:31.584Z,28.80
2018-07-23T15:08:01.548Z,29.00
2018-07-23T15:10:31.416Z,30.00
2018-07-23T15:13:01.209Z,29.50
2018-07-23T15:15:30.952Z,29.30
2018-07-23T15:18:00.729Z,31.40
2018-07-23T15:20:30.545Z,32.50
2018-07-23T15:23:00.381Z,32.30
2018-07-23T15:25:30.194Z,32.60
2018-07-23T15:28:00.053Z,33.30
2018-07-23T15:30:31.533Z,34.30
2018-07-23T15:33:01.413Z,35.20
2018-07-23T15:35:31.124Z,35.60
2018-07-23T15:38:01.104Z,36.10
2018-07-23T15:40:30.874Z,37.00
2018-07-23T15:43:00.660Z,37.60
2018-07-23T15:45:30.587Z,38.10
2018-07-23T15:48:00.261Z,38.60
2018-07-23T15:50:30.098Z,38.40
2018-07-23T15:52:59.935Z,38.50
2018-07-23T15:55:29.730Z,38.50
2018-07-23T15:57:59.506Z,38.80
2018-07-23T16:00:29.423Z,38.90
2018-07-23T16:02:59.328Z,38.90
2018-07-23T16:07:59.079Z,38.10
2018-07-23T16:10:28.886Z,37.60
2018-07-23T16:12:58.883Z,37.80
2018-07-23T16:15:28.705Z,37.10
2018-07-23T16:17:58.514Z,37.20
2018-07-23T16:20:28.325Z,36.50
2018-07-23T16:22:58.112Z,33.70
2018-07-23T16:25:28.021Z,32.40
2018-07-23T16:27:57.796Z,31.60
2018-07-23T16:30:27.580Z,28.50
2018-07-23T16:32:57.389Z,27.00
2018-07-23T16:35:27.173Z,25.20
2018-07-23T16:37:57.016Z,24.80
2018-07-23T16:40:26.800Z,24.80
2018-07-23T16:42:56.594Z,25.20
2018-07-23T16:45:26.388Z,24.80
2018-07-23T16:47:56.227Z,23.90
2018-07-23T16:50:26.017Z,23.40
2018-07-23T16:52:56.087Z,23.20
2018-07-23T16:55:25.890Z,23.40
2018-07-23T16:57:55.669Z,23.20
2018-07-23T17:00:25.446Z,24.10
2018-07-23T17:02:55.250Z,25.70
2018-07-23T17:05:25.044Z,25.40
2018-07-23T17:07:54.821Z,24.80
2018-07-23T17:10:24.609Z,25.70
2018-07-23T17:12:54.474Z,26.10
2018-07-23T17:15:24.342Z,25.70
2018-07-23T17:17:54.215Z,25.00
2018-07-23T17:20:23.980Z,25.00
2018-07-23T17:22:53.772Z,25.50
2018-07-23T17:25:23.632Z,26.90
2018-07-23T17:27:53.413Z,29.20
2018-07-23T17:30:23.236Z,30.60
2018-07-23T17:32:53.085Z,32.80
2018-07-23T17:35:22.837Z,34.60
2018-07-23T17:37:52.663Z,34.80
2018-07-23T17:40:22.444Z,35.00
2018-07-23T17:42:52.280Z,35.50
2018-07-23T17:45:22.144Z,36.20
2018-07-23T17:47:52.005Z,37.00
2018-07-23T17:50:21.843Z,37.30
2018-07-23T17:52:51.628Z,37.30
2018-07-23T17:55:21.476Z,38.00
2018-07-23T17:57:51.280Z,38.70
2018-07-23T18:00:21.128Z,38.90
2018-07-23T18:02:50.906Z,39.10
2018-07-23T18:05:20.790Z,39.20
2018-07-23T18:07:50.638Z,39.80
2018-07-23T18:10:20.445Z,39.80
2018-07-23T18:12:50.278Z,40.00
2018-07-23T18:15:20.081Z,40.60
2018-07-23T18:17:49.986Z,40.60
2018-07-23T18:20:19.819Z,40.80
2018-07-23T18:22:49.616Z,40.90
2018-07-23T18:25:19.434Z,41.10
2018-07-23T18:27:49.278Z,41.20
2018-07-23T18:30:19.082Z,41.70
2018-07-23T18:32:48.936Z,42.20
2018-07-23T18:35:18.723Z,42.40
2018-07-23T18:37:48.608Z,42.80
2018-07-23T18:40:18.485Z,43.20
2018-07-23T18:42:48.248Z,43.40
2018-07-23T18:45:18.054Z,44.00
2018-07-23T18:47:47.906Z,44.40
2018-07-23T18:50:17.636Z,45.10
2018-07-23T18:52:47.524Z,45.60
2018-07-23T18:55:17.399Z,46.00
2018-07-23T18:57:47.186Z,46.30
2018-07-23T19:00:17.020Z,46.30
2018-07-23T19:02:46.822Z,46.80
2018-07-23T19:05:16.664Z,47.50
2018-07-23T19:07:46.435Z,47.20
2018-07-23T19:10:16.249Z,47.30
2018-07-23T19:12:46.065Z,47.30
2018-07-23T19:15:15.892Z,47.80
2018-07-23T19:17:45.746Z,48.10
2018-07-23T19:20:15.617Z,48.70
2018-07-23T19:22:45.382Z,48.70
2018-07-23T19:25:15.147Z,49.90
2018-07-23T19:27:44.950Z,49.10
2018-07-23T19:30:14.716Z,49.80
2018-07-23T19:32:44.472Z,50.30
2018-07-23T19:35:14.267Z,50.20
2018-07-23T19:37:44.024Z,50.60
2018-07-23T19:40:13.834Z,50.60
2018-07-23T19:42:43.605Z,50.70
2018-07-23T19:45:13.386Z,50.90
2018-07-23T19:47:43.259Z,51.40
2018-07-23T19:50:13.043Z,52.00
2018-07-23T19:52:42.827Z,52.20
2018-07-23T19:55:12.660Z,52.10
2018-07-23T19:57:42.437Z,52.10
2018-07-23T20:00:12.208Z,52.30
2018-07-23T20:02:42.006Z,52.60
2018-07-23T20:05:11.819Z,52.90
2018-07-23T20:07:41.584Z,53.00
2018-07-23T20:10:11.384Z,53.40
2018-07-23T20:12:41.178Z,53.70
2018-07-23T20:15:10.975Z,53.90
2018-07-23T20:17:40.897Z,54.60
2018-07-23T20:20:10.785Z,55.30
2018-07-23T20:22:40.577Z,55.40
2018-07-23T20:25:10.373Z,55.40
2018-07-23T20:27:40.127Z,55.60
2018-07-23T20:30:09.955Z,55.90
2018-07-23T20:32:39.792Z,56.00
2018-07-23T20:35:09.580Z,56.10
2018-07-23T20:37:39.367Z,56.50
2018-07-23T20:40:09.248Z,56.60
2018-07-23T20:42:39.025Z,56.90
2018-07-23T20:45:08.945Z,57.30
2018-07-23T20:47:38.798Z,57.80
2018-07-23T20:50:08.625Z,58.40
2018-07-23T20:52:38.479Z,58.80
2018-07-23T20:55:08.299Z,59.00
2018-07-23T20:57:38.112Z,59.30
2018-07-23T21:00:08.495Z,59.50
2018-07-23T21:02:38.283Z,59.80
2018-07-23T21:05:09.095Z,60.20
2018-07-23T21:07:38.859Z,60.00
2018-07-23T21:10:08.669Z,60.60
2018-07-23T21:12:38.521Z,61.00
2018-07-23T21:15:08.914Z,61.20
2018-07-23T21:17:38.689Z,61.40
2018-07-23T21:20:09.176Z,61.80
2018-07-23T21:22:39.200Z,62.20
2018-07-23T21:25:09.137Z,62.70
2018-07-23T21:27:39.050Z,63.50
2018-07-23T21:30:08.842Z,65.00
2018-07-23T21:32:38.668Z,64.70
2018-07-23T21:35:08.453Z,64.90
2018-07-23T21:37:38.419Z,64.80
2018-07-23T21:40:09.323Z,64.80
2018-07-23T21:42:39.476Z,65.30
2018-07-23T21:45:10.090Z,65.20
2018-07-23T21:47:39.883Z,65.30
2018-07-23T21:52:39.003Z,65.40
2018-07-23T21:55:08.824Z,65.90
2018-07-23T21:57:38.616Z,65.80
2018-07-23T22:00:12.277Z,66.10
2018-07-23T22:02:42.144Z,65.80
2018-07-23T22:05:12.031Z,65.90
2018-07-23T22:07:42.663Z,66.00
2018-07-23T22:10:19.094Z,66.90
2018-07-23T22:12:48.847Z,67.20
2018-07-23T22:17:48.022Z,67.60
2018-07-23T22:20:17.839Z,67.80
2018-07-23T22:22:47.648Z,68.00
2018-07-23T22:25:17.480Z,68.50
2018-07-23T22:27:47.312Z,69.00
2018-07-23T22:30:17.172Z,69.40
2018-07-23T22:32:46.958Z,69.10
2018-07-23T22:35:16.813Z,68.70
2018-07-23T22:37:46.658Z,68.50
2018-07-23T22:40:16.455Z,68.30
2018-07-23T22:42:46.319Z,68.20
2018-07-23T22:45:16.131Z,68.10
2018-07-23T22:47:45.964Z,68.20
2018-07-23T22:50:15.754Z,68.40
2018-07-23T22:52:45.555Z,69.00
2018-07-23T22:55:15.378Z,69.30
2018-07-23T22:57:45.193Z,69.50
2018-07-23T23:00:14.937Z,69.50
2018-07-23T23:02:44.718Z,69.80
2018-07-23T23:05:14.482Z,70.50
2018-07-23T23:07:44.288Z,70.90
2018-07-23T23:10:14.091Z,71.40
2018-07-23T23:12:43.857Z,72.20
2018-07-23T23:15:13.618Z,72.20
2018-07-23T23:17:43.386Z,73.00
2018-07-23T23:20:13.215Z,73.40
2018-07-23T23:22:43.084Z,74.10
2018-07-23T23:25:12.898Z,74.30
2018-07-23T23:27:42.669Z,74.50
2018-07-23T23:30:12.452Z,74.00
2018-07-23T23:32:42.250Z,73.50
2018-07-23T23:35:12.088Z,73.40
2018-07-23T23:37:41.837Z,74.10
2018-07-23T23:40:11.603Z,74.20
2018-07-23T23:42:41.438Z,74.30
2018-07-23T23:45:11.253Z,74.20
2018-07-23T23:47:41.066Z,74.30
2018-07-23T23:50:10.807Z,75.00
2018-07-23T23:52:40.617Z,75.90
2018-07-23T23:55:10.394Z,76.30
2018-07-23T23:57:40.237Z,76.30
